createdAt,value
2023-05-13T00:00:21.802Z,7.24
2023-05-13T00:02:48.754Z,7.21
2023-05-13T00:05:15.481Z,7.22
2023-05-13T00:07:42.579Z,7.31
2023-05-13T00:10:09.694Z,7.28
2023-05-13T00:12:37.251Z,7.39
2023-05-13T00:15:04.208Z,7.37
2023-05-13T00:17:30.863Z,7.41
2023-05-13T00:19:57.590Z,7.42
2023-05-13T00:22:24.219Z,7.29
2023-05-13T00:24:50.960Z,7.19
2023-05-13T00:27:17.626Z,7.20
2023-05-13T00:29:44.351Z,7.31
2023-05-13T00:32:11.005Z,7.41
2023-05-13T00:34:37.792Z,7.33
2023-05-13T00:37:05.000Z,7.31
2023-05-13T00:39:31.667Z,7.36
2023-05-13T00:41:59.325Z,7.10
2023-05-13T00:44:28.478Z,7.22
2023-05-13T00:46:55.064Z,7.26
2023-05-13T00:49:21.696Z,7.27
2023-05-13T00:51:48.687Z,7.26
2023-05-13T00:54:15.489Z,7.11
2023-05-13T00:56:42.129Z,7.05
2023-05-13T00:59:08.887Z,6.84
2023-05-13T01:01:48.182Z,6.92
2023-05-13T01:04:33.601Z,6.88
2023-05-13T01:07:15.364Z,6.80
2023-05-13T01:10:03.621Z,6.72
2023-05-13T01:12:35.097Z,6.63
2023-05-13T01:15:07.261Z,6.65
2023-05-13T01:17:51.075Z,6.63
2023-05-13T01:20:21.911Z,6.65
2023-05-13T01:22:48.802Z,6.68
2023-05-13T01:25:15.613Z,6.84
2023-05-13T01:27:42.314Z,6.86
2023-05-13T01:30:10.089Z,6.92
2023-05-13T01:32:38.304Z,6.98
2023-05-13T01:35:07.194Z,6.95
2023-05-13T01:37:33.902Z,6.80
2023-05-13T01:40:01.029Z,6.69
2023-05-13T01:42:29.959Z,6.39
2023-05-13T01:44:57.752Z,6.23
2023-05-13T01:47:24.469Z,6.23
2023-05-13T01:49:51.260Z,6.14
2023-05-13T01:52:18.191Z,5.95
2023-05-13T01:54:44.874Z,5.90
2023-05-13T01:59:38.174Z,5.87
2023-05-13T02:02:05.666Z,5.88
2023-05-13T02:04:32.407Z,6.11
2023-05-13T02:06:59.106Z,6.22
2023-05-13T02:09:25.779Z,6.26
2023-05-13T02:11:52.426Z,6.32
2023-05-13T02:14:19.040Z,6.27
2023-05-13T02:16:46.188Z,6.22
2023-05-13T02:19:13.034Z,6.27
2023-05-13T02:21:39.846Z,6.27
2023-05-13T02:24:06.820Z,6.30
2023-05-13T02:26:33.494Z,6.29
2023-05-13T02:29:00.199Z,6.36
2023-05-13T02:31:26.928Z,6.29
2023-05-13T02:33:54.536Z,6.13
2023-05-13T02:36:21.192Z,5.96
2023-05-13T02:38:47.794Z,5.85
2023-05-13T02:41:14.629Z,5.81
2023-05-13T02:43:41.345Z,5.74
2023-05-13T02:46:08.071Z,5.98
2023-05-13T02:48:34.773Z,5.97
2023-05-13T02:51:01.467Z,5.83
2023-05-13T02:53:28.296Z,5.85
2023-05-13T02:55:54.984Z,5.85
2023-05-13T02:58:23.056Z,5.64
2023-05-13T03:00:49.994Z,5.57
2023-05-13T03:03:16.802Z,5.49
2023-05-13T03:05:43.602Z,5.38
2023-05-13T03:08:10.204Z,5.46
2023-05-13T03:10:36.884Z,5.50
2023-05-13T03:13:03.582Z,5.46
2023-05-13T03:15:30.249Z,5.51
2023-05-13T03:17:57.979Z,5.56
2023-05-13T03:20:24.865Z,5.48
2023-05-13T03:22:51.637Z,5.43
2023-05-13T03:25:18.480Z,5.54
2023-05-13T03:27:45.171Z,5.52
2023-05-13T03:30:12.190Z,5.39
2023-05-13T03:32:38.922Z,5.63
2023-05-13T03:35:05.908Z,5.80
2023-05-13T03:37:32.566Z,5.84
2023-05-13T03:39:59.343Z,5.87
2023-05-13T03:42:26.611Z,5.91
2023-05-13T03:44:53.324Z,6.06
2023-05-13T03:47:20.231Z,6.00
2023-05-13T03:49:48.139Z,6.13
2023-05-13T03:52:15.010Z,5.81
2023-05-13T03:54:41.672Z,6.42
2023-05-13T03:57:08.979Z,6.47
2023-05-13T03:59:35.675Z,6.73
2023-05-13T04:02:03.110Z,6.86
2023-05-13T04:04:29.922Z,6.92
2023-05-13T04:06:56.585Z,7.10
2023-05-13T04:09:23.302Z,7.17
2023-05-13T04:11:50.059Z,7.33
2023-05-13T04:14:16.676Z,7.53
2023-05-13T04:16:43.432Z,7.70
2023-05-13T04:19:10.142Z,7.90
2023-05-13T04:21:36.747Z,7.90
2023-05-13T04:24:03.486Z,7.98
2023-05-13T04:26:30.143Z,8.14
2023-05-13T04:28:56.831Z,8.26
2023-05-13T04:31:23.575Z,8.26
2023-05-13T04:33:50.346Z,8.39
2023-05-13T04:36:17.005Z,8.46
2023-05-13T04:38:43.740Z,8.61
2023-05-13T04:41:10.427Z,8.73
2023-05-13T04:43:37.086Z,8.75
2023-05-13T04:48:58.087Z,8.59
2023-05-13T04:51:25.269Z,8.69
2023-05-13T04:53:52.222Z,8.85
2023-05-13T04:56:18.997Z,8.90
2023-05-13T04:58:45.694Z,8.89
2023-05-13T05:01:12.418Z,9.04
2023-05-13T05:03:39.275Z,9.13
2023-05-13T05:06:06.380Z,9.19
2023-05-13T05:08:33.237Z,9.18
2023-05-13T05:11:00.743Z,9.31
2023-05-13T05:13:27.400Z,9.34
2023-05-13T05:15:54.018Z,9.49
2023-05-13T05:18:20.966Z,9.70
2023-05-13T05:20:47.695Z,9.77
2023-05-13T05:23:14.409Z,9.72
2023-05-13T05:25:41.076Z,9.93
2023-05-13T05:28:09.372Z,10.09
2023-05-13T05:30:40.054Z,10.19
2023-05-13T05:33:07.543Z,10.11
2023-05-13T05:35:37.332Z,10.35
2023-05-13T05:38:08.466Z,10.72
2023-05-13T05:40:38.747Z,10.84
2023-05-13T05:43:05.365Z,11.18
2023-05-13T05:45:32.009Z,11.23
2023-05-13T05:47:58.705Z,11.31
2023-05-13T05:50:25.460Z,11.45
2023-05-13T05:52:52.144Z,11.79
2023-05-13T05:55:18.993Z,11.70
2023-05-13T05:57:45.741Z,11.87
2023-05-13T06:00:13.236Z,11.78
2023-05-13T06:02:40.146Z,11.89
2023-05-13T06:05:07.587Z,12.18
2023-05-13T06:07:34.237Z,12.68
2023-05-13T06:10:00.905Z,13.02
2023-05-13T06:12:27.590Z,13.07
2023-05-13T06:14:54.305Z,13.42
2023-05-13T06:17:21.006Z,13.81
2023-05-13T06:19:47.651Z,13.35
2023-05-13T06:22:15.229Z,13.08
2023-05-13T06:24:44.617Z,13.17
2023-05-13T06:27:12.232Z,13.50
2023-05-13T06:29:39.227Z,14.12
2023-05-13T06:32:06.180Z,14.65
2023-05-13T06:34:32.783Z,14.74
2023-05-13T06:36:59.471Z,14.90
2023-05-13T06:39:26.108Z,15.24
2023-05-13T06:41:52.715Z,14.80
2023-05-13T06:44:19.361Z,14.57
2023-05-13T06:46:46.599Z,14.98
2023-05-13T06:49:13.292Z,14.73
2023-05-13T06:51:40.165Z,14.58
2023-05-13T06:54:06.866Z,14.68
2023-05-13T06:56:34.768Z,14.84
2023-05-13T06:59:02.168Z,15.16
2023-05-13T07:01:28.872Z,15.68
2023-05-13T07:03:55.878Z,15.59
2023-05-13T07:06:22.898Z,15.37
2023-05-13T07:08:49.624Z,15.20
2023-05-13T07:11:16.296Z,15.66
2023-05-13T07:13:43.579Z,16.26
2023-05-13T07:16:10.723Z,16.42
2023-05-13T07:18:37.456Z,16.72
2023-05-13T07:21:04.415Z,16.91
2023-05-13T07:23:31.597Z,16.93
2023-05-13T07:25:58.288Z,16.66
2023-05-13T07:28:24.976Z,16.59
2023-05-13T07:30:53.548Z,16.47
2023-05-13T07:33:20.328Z,15.99
2023-05-13T07:35:47.172Z,15.62
2023-05-13T07:38:13.843Z,16.26
2023-05-13T07:40:41.475Z,16.55
2023-05-13T07:43:08.527Z,16.58
2023-05-13T07:45:35.249Z,16.49
2023-05-13T07:48:01.989Z,16.30
2023-05-13T07:50:28.807Z,16.92
2023-05-13T07:52:55.534Z,17.28
2023-05-13T07:55:22.769Z,17.78
2023-05-13T07:57:49.636Z,18.37
2023-05-13T08:00:16.741Z,18.71
2023-05-13T08:02:44.026Z,17.23
2023-05-13T08:05:11.698Z,16.90
2023-05-13T08:07:38.484Z,17.32
2023-05-13T08:10:05.949Z,18.04
2023-05-13T08:12:32.669Z,18.60
2023-05-13T08:14:59.323Z,18.31
2023-05-13T08:17:26.108Z,18.14
2023-05-13T08:19:52.766Z,18.78
2023-05-13T08:22:19.422Z,18.91
2023-05-13T08:24:46.030Z,18.72
2023-05-13T08:27:13.133Z,18.86
2023-05-13T08:29:39.803Z,20.01
2023-05-13T08:32:06.721Z,19.22
2023-05-13T08:34:33.681Z,19.69
2023-05-13T08:37:00.342Z,19.99
2023-05-13T08:39:27.016Z,20.32
2023-05-13T08:41:58.062Z,19.71
2023-05-13T08:44:29.406Z,20.14
2023-05-13T08:47:08.579Z,19.86
2023-05-13T08:49:35.418Z,20.55
2023-05-13T08:52:02.151Z,20.09
2023-05-13T08:54:30.310Z,20.48
2023-05-13T08:56:56.998Z,20.81
2023-05-13T08:59:23.709Z,20.30
2023-05-13T09:01:51.108Z,19.31
2023-05-13T09:04:19.769Z,20.36
2023-05-13T09:06:49.179Z,20.91
2023-05-13T09:09:15.929Z,20.43
2023-05-13T09:11:44.675Z,20.41
2023-05-13T09:14:12.847Z,20.32
2023-05-13T09:16:39.881Z,20.02
2023-05-13T09:19:08.362Z,20.47
2023-05-13T09:21:36.568Z,20.94
2023-05-13T09:24:11.547Z,20.59
2023-05-13T09:26:39.509Z,19.68
2023-05-13T09:29:22.661Z,19.76
2023-05-13T09:31:53.502Z,19.79
2023-05-13T09:34:26.231Z,20.04
2023-05-13T09:37:06.821Z,20.65
2023-05-13T09:39:41.748Z,20.75
2023-05-13T09:42:16.573Z,20.63
2023-05-13T09:44:44.728Z,21.37
2023-05-13T09:47:15.022Z,21.16
2023-05-13T09:49:42.659Z,21.73
2023-05-13T09:52:12.791Z,21.76
2023-05-13T09:54:39.477Z,22.56
2023-05-13T09:57:06.768Z,21.32
2023-05-13T09:59:36.767Z,21.95
2023-05-13T10:02:07.896Z,21.42
2023-05-13T10:04:34.860Z,21.68
2023-05-13T10:07:03.841Z,21.76
2023-05-13T10:09:37.151Z,21.05
2023-05-13T10:12:07.824Z,22.14
2023-05-13T10:14:37.025Z,21.74
2023-05-13T10:17:05.527Z,21.59
2023-05-13T10:19:32.906Z,21.37
2023-05-13T10:22:00.114Z,21.32
2023-05-13T10:24:29.032Z,21.91
2023-05-13T10:26:57.275Z,22.43
2023-05-13T10:29:25.578Z,22.24
2023-05-13T10:31:53.572Z,22.68
2023-05-13T10:34:22.500Z,22.29
2023-05-13T10:37:08.273Z,22.40
2023-05-13T10:40:08.736Z,22.21
2023-05-13T10:42:43.161Z,22.79
2023-05-13T10:45:11.013Z,23.22
2023-05-13T10:47:38.478Z,22.56
2023-05-13T10:50:25.373Z,23.11
2023-05-13T10:52:57.193Z,23.43
2023-05-13T10:55:26.292Z,23.74
2023-05-13T10:58:09.865Z,23.94
2023-05-13T11:00:38.392Z,24.16
2023-05-13T11:03:13.529Z,24.37
2023-05-13T11:05:43.831Z,23.85
2023-05-13T11:08:11.919Z,23.60
2023-05-13T11:10:41.061Z,23.97
2023-05-13T11:13:16.780Z,24.30
2023-05-13T11:15:54.926Z,23.32
2023-05-13T11:18:30.127Z,23.26
2023-05-13T11:21:05.262Z,23.66
2023-05-13T11:23:35.185Z,22.39
2023-05-13T11:26:17.256Z,22.48
2023-05-13T11:29:06.422Z,21.81
2023-05-13T11:31:44.886Z,22.50
2023-05-13T11:34:14.158Z,22.47
2023-05-13T11:36:43.910Z,22.90
2023-05-13T11:39:12.037Z,22.90
2023-05-13T11:41:42.102Z,23.22
2023-05-13T11:44:09.271Z,22.87
2023-05-13T11:46:36.415Z,23.45
2023-05-13T11:49:05.907Z,22.74
2023-05-13T11:51:34.277Z,23.40
2023-05-13T11:54:03.032Z,23.52
2023-05-13T11:56:30.199Z,23.56
2023-05-13T11:59:14.391Z,23.36
2023-05-13T12:01:41.293Z,23.20
2023-05-13T12:04:08.678Z,22.90
2023-05-13T12:06:35.904Z,23.45
2023-05-13T12:09:06.828Z,23.82
2023-05-13T12:11:33.989Z,24.73
2023-05-13T12:14:01.247Z,24.81
2023-05-13T12:16:28.537Z,24.91
2023-05-13T12:19:15.619Z,25.50
2023-05-13T12:21:42.456Z,26.03
2023-05-13T12:24:19.545Z,25.76
2023-05-13T12:26:46.354Z,25.63
2023-05-13T12:29:13.060Z,25.27
2023-05-13T12:31:42.234Z,25.39
2023-05-13T12:34:09.157Z,24.99
2023-05-13T12:36:39.875Z,25.35
2023-05-13T12:39:11.205Z,25.58
2023-05-13T12:41:40.228Z,26.11
2023-05-13T12:44:15.255Z,26.55
2023-05-13T12:46:55.668Z,26.77
2023-05-13T12:49:22.588Z,26.21
2023-05-13T12:51:50.177Z,26.04
2023-05-13T12:54:16.845Z,26.68
2023-05-13T12:56:44.095Z,27.16
2023-05-13T12:59:10.767Z,27.41
2023-05-13T13:01:37.535Z,26.62
2023-05-13T13:04:04.341Z,26.22
2023-05-13T13:06:32.539Z,26.63
2023-05-13T13:08:59.392Z,26.30
2023-05-13T13:11:26.252Z,27.49
2023-05-13T13:13:52.987Z,28.12
2023-05-13T13:16:19.849Z,27.40
2023-05-13T13:18:47.520Z,26.93
2023-05-13T13:21:14.617Z,28.35
2023-05-13T13:23:41.300Z,28.89
2023-05-13T13:26:08.652Z,27.94
2023-05-13T13:28:35.306Z,27.90
2023-05-13T13:31:02.000Z,26.14
2023-05-13T13:33:28.704Z,26.88
2023-05-13T13:35:55.519Z,28.11
2023-05-13T13:38:22.188Z,29.90
2023-05-13T13:40:49.173Z,30.21
2023-05-13T13:43:15.909Z,27.79
2023-05-13T13:45:42.611Z,27.57
2023-05-13T13:48:09.611Z,27.15
2023-05-13T13:50:36.665Z,27.65
2023-05-13T13:53:03.309Z,27.52
2023-05-13T13:55:30.044Z,26.32
2023-05-13T13:57:56.701Z,26.50
2023-05-13T14:00:24.765Z,26.82
2023-05-13T14:02:51.603Z,27.52
2023-05-13T14:05:18.500Z,26.54
2023-05-13T14:07:46.391Z,25.24
2023-05-13T14:10:13.131Z,24.68
2023-05-13T14:12:39.908Z,23.67
2023-05-13T14:15:07.446Z,22.78
2023-05-13T14:17:34.359Z,22.50
2023-05-13T14:20:01.202Z,22.32
2023-05-13T14:22:28.076Z,21.93
2023-05-13T14:24:55.525Z,22.26
2023-05-13T14:27:24.800Z,21.82
2023-05-13T14:29:51.620Z,21.42
2023-05-13T14:32:18.430Z,21.07
2023-05-13T14:34:45.147Z,20.97
2023-05-13T14:37:12.031Z,21.25
2023-05-13T14:39:38.762Z,21.22
2023-05-13T14:42:05.874Z,21.29
2023-05-13T14:44:32.574Z,21.01
2023-05-13T14:46:59.553Z,21.10
2023-05-13T14:49:26.305Z,21.17
2023-05-13T14:51:52.940Z,21.00
2023-05-13T14:54:19.650Z,20.90
2023-05-13T14:56:46.407Z,20.56
2023-05-13T14:59:13.305Z,20.68
2023-05-13T15:01:40.219Z,20.49
2023-05-13T15:04:06.853Z,20.57
2023-05-13T15:06:34.054Z,20.36
2023-05-13T15:09:01.131Z,20.24
2023-05-13T15:11:28.720Z,20.75
2023-05-13T15:13:55.886Z,20.18
2023-05-13T15:16:22.984Z,20.41
2023-05-13T15:18:50.440Z,20.63
2023-05-13T15:21:17.651Z,20.58
2023-05-13T15:23:44.921Z,20.47
2023-05-13T15:26:11.722Z,20.49
2023-05-13T15:28:44.484Z,20.53
2023-05-13T15:31:11.807Z,20.19
2023-05-13T15:33:38.735Z,20.18
2023-05-13T15:36:06.284Z,20.09
2023-05-13T15:38:32.973Z,20.24
2023-05-13T15:41:00.163Z,19.95
2023-05-13T15:43:26.925Z,20.02
2023-05-13T15:45:53.807Z,19.99
2023-05-13T15:48:20.594Z,20.13
2023-05-13T15:50:47.358Z,19.81
2023-05-13T15:53:14.256Z,19.96
2023-05-13T15:55:40.906Z,19.83
2023-05-13T15:58:07.556Z,19.92
2023-05-13T16:00:34.365Z,19.93
2023-05-13T16:03:01.525Z,19.72
2023-05-13T16:05:28.629Z,19.61
2023-05-13T16:07:57.277Z,19.60
2023-05-13T16:10:24.362Z,19.68
2023-05-13T16:12:51.657Z,19.54
2023-05-13T16:15:18.406Z,19.57
2023-05-13T16:17:45.143Z,19.42
2023-05-13T16:20:12.451Z,19.40
2023-05-13T16:22:39.625Z,19.28
2023-05-13T16:25:10.746Z,19.08
2023-05-13T16:27:41.408Z,19.29
2023-05-13T16:30:08.730Z,18.85
2023-05-13T16:32:35.500Z,19.06
2023-05-13T16:35:03.707Z,18.95
2023-05-13T16:37:34.602Z,18.93
2023-05-13T16:40:01.406Z,18.86
2023-05-13T16:42:28.105Z,18.75
2023-05-13T16:44:54.851Z,18.66
2023-05-13T16:47:22.040Z,18.48
2023-05-13T16:49:50.342Z,18.34
2023-05-13T16:52:17.055Z,18.29
2023-05-13T16:54:44.068Z,18.32
2023-05-13T16:57:10.845Z,18.18
2023-05-13T16:59:37.447Z,18.07
2023-05-13T17:02:04.354Z,18.00
2023-05-13T17:04:31.022Z,18.08
2023-05-13T17:06:59.179Z,17.83
2023-05-13T17:09:26.774Z,17.76
2023-05-13T17:11:54.798Z,17.51
2023-05-13T17:14:22.009Z,17.42
2023-05-13T17:16:49.111Z,17.40
2023-05-13T17:19:16.226Z,17.12
2023-05-13T17:21:42.966Z,17.13
2023-05-13T17:24:09.744Z,17.04
2023-05-13T17:26:38.668Z,16.81
2023-05-13T17:29:06.104Z,16.62
2023-05-13T17:31:33.155Z,16.26
2023-05-13T17:33:59.886Z,15.98
2023-05-13T17:36:26.546Z,15.92
2023-05-13T17:38:53.211Z,15.68
2023-05-13T17:41:19.993Z,15.75
2023-05-13T17:43:46.626Z,15.66
2023-05-13T17:46:13.568Z,15.46
2023-05-13T17:48:40.381Z,15.32
2023-05-13T17:51:07.153Z,15.19
2023-05-13T17:53:35.013Z,15.20
2023-05-13T17:56:02.047Z,14.85
2023-05-13T17:58:28.945Z,14.90
2023-05-13T18:00:55.773Z,14.82
2023-05-13T18:03:22.722Z,14.47
2023-05-13T18:05:49.579Z,14.35
2023-05-13T18:08:16.324Z,14.35
2023-05-13T18:10:43.242Z,14.40
2023-05-13T18:13:09.963Z,14.31
2023-05-13T18:15:36.855Z,14.27
2023-05-13T18:18:04.083Z,14.06
2023-05-13T18:20:32.385Z,14.03
2023-05-13T18:22:59.681Z,14.06
2023-05-13T18:25:26.374Z,13.89
2023-05-13T18:27:52.972Z,13.75
2023-05-13T18:30:19.922Z,13.67
2023-05-13T18:32:46.646Z,13.62
2023-05-13T18:35:13.385Z,13.49
2023-05-13T18:37:40.035Z,13.44
2023-05-13T18:40:07.388Z,13.33
2023-05-13T18:42:34.004Z,13.30
2023-05-13T18:45:00.792Z,13.29
2023-05-13T18:47:27.475Z,13.18
2023-05-13T18:49:54.221Z,12.98
2023-05-13T18:52:21.420Z,13.27
2023-05-13T18:54:48.056Z,13.27
2023-05-13T18:57:16.040Z,13.07
2023-05-13T18:59:42.764Z,12.85
2023-05-13T19:02:09.513Z,12.83
2023-05-13T19:04:36.405Z,12.73
2023-05-13T19:07:03.359Z,12.64
2023-05-13T19:09:30.079Z,12.66
2023-05-13T19:11:56.802Z,12.66
2023-05-13T19:14:23.511Z,12.84
2023-05-13T19:16:51.019Z,12.98
2023-05-13T19:19:17.914Z,12.90
2023-05-13T19:21:44.673Z,12.52
2023-05-13T19:24:11.347Z,12.47
2023-05-13T19:26:38.246Z,12.38
2023-05-13T19:29:04.975Z,12.33
2023-05-13T19:31:32.502Z,12.29
2023-05-13T19:34:01.408Z,12.29
2023-05-13T19:36:28.263Z,12.21
2023-05-13T19:38:55.569Z,12.31
2023-05-13T19:41:22.672Z,12.24
2023-05-13T19:43:49.420Z,12.15
2023-05-13T19:46:16.227Z,12.08
2023-05-13T19:48:42.962Z,11.90
2023-05-13T19:51:09.650Z,12.03
2023-05-13T19:53:36.494Z,11.91
2023-05-13T19:56:03.828Z,11.75
2023-05-13T19:58:30.464Z,11.71
2023-05-13T20:00:57.232Z,11.63
2023-05-13T20:03:24.142Z,11.58
2023-05-13T20:05:51.459Z,11.64
2023-05-13T20:08:18.163Z,11.50
2023-05-13T20:10:44.860Z,11.45
2023-05-13T20:13:11.901Z,11.45
2023-05-13T20:15:38.610Z,11.44
2023-05-13T20:18:05.369Z,11.48
2023-05-13T20:20:32.046Z,11.50
2023-05-13T20:22:58.816Z,11.42
2023-05-13T20:25:25.554Z,11.57
2023-05-13T20:27:52.212Z,11.55
2023-05-13T20:30:21.163Z,11.61
2023-05-13T20:32:48.334Z,11.66
2023-05-13T20:35:15.066Z,11.64
2023-05-13T20:37:42.322Z,11.72
2023-05-13T20:40:09.674Z,11.70
2023-05-13T20:42:36.371Z,11.75
2023-05-13T20:45:04.577Z,11.82
2023-05-13T20:47:31.587Z,11.92
2023-05-13T20:49:58.357Z,11.91
2023-05-13T20:52:26.569Z,11.68
2023-05-13T20:54:53.662Z,12.16
2023-05-13T20:57:20.272Z,12.05
2023-05-13T20:59:47.162Z,11.90
2023-05-13T21:02:13.779Z,11.89
2023-05-13T21:04:40.781Z,11.71
2023-05-13T21:07:07.919Z,11.86
2023-05-13T21:09:34.786Z,11.87
2023-05-13T21:12:01.641Z,11.91
2023-05-13T21:14:28.370Z,11.86
2023-05-13T21:16:55.487Z,11.88
2023-05-13T21:19:23.862Z,11.88
2023-05-13T21:21:50.905Z,11.76
2023-05-13T21:24:18.863Z,11.67
2023-05-13T21:26:46.339Z,11.57
2023-05-13T21:29:13.253Z,11.68
2023-05-13T21:31:39.912Z,11.58
2023-05-13T21:34:06.721Z,11.69
2023-05-13T21:36:33.973Z,11.73
2023-05-13T21:39:00.818Z,11.70
2023-05-13T21:41:27.619Z,11.62
2023-05-13T21:43:54.404Z,11.80
2023-05-13T21:46:21.102Z,11.83
2023-05-13T21:48:48.378Z,11.62
2023-05-13T21:51:15.229Z,11.53
2023-05-13T21:53:43.573Z,11.50
2023-05-13T21:56:10.391Z,11.44
2023-05-13T21:58:37.224Z,11.48
2023-05-13T22:01:04.032Z,11.44
2023-05-13T22:03:30.790Z,11.49
2023-05-13T22:05:57.642Z,11.46
2023-05-13T22:08:24.333Z,11.43
2023-05-13T22:10:51.162Z,11.34
2023-05-13T22:13:17.830Z,11.53
2023-05-13T22:15:44.639Z,11.55
2023-05-13T22:18:11.470Z,11.56
2023-05-13T22:20:38.168Z,11.67
2023-05-13T22:23:04.811Z,11.67
2023-05-13T22:25:31.511Z,11.64
2023-05-13T22:27:58.444Z,11.59
2023-05-13T22:30:25.341Z,11.60
2023-05-13T22:32:52.288Z,11.58
2023-05-13T22:35:19.019Z,11.75
2023-05-13T22:37:45.823Z,11.65
2023-05-13T22:40:13.080Z,11.39
2023-05-13T22:42:39.723Z,11.10
2023-05-13T22:45:06.859Z,11.01
2023-05-13T22:47:35.259Z,11.10
2023-05-13T22:50:03.027Z,11.19
2023-05-13T22:52:29.964Z,11.15
2023-05-13T22:54:56.781Z,11.09
2023-05-13T22:57:23.480Z,11.29
2023-05-13T22:59:50.334Z,11.20
2023-05-13T23:02:17.015Z,11.15
2023-05-13T23:04:43.663Z,11.28
2023-05-13T23:07:10.336Z,11.42
2023-05-13T23:09:37.005Z,11.17
2023-05-13T23:12:03.961Z,11.11
2023-05-13T23:14:30.594Z,11.04
2023-05-13T23:16:57.251Z,11.00
2023-05-13T23:19:25.897Z,11.09
2023-05-13T23:21:52.688Z,11.21
2023-05-13T23:24:19.317Z,11.01
2023-05-13T23:26:47.387Z,10.97
2023-05-13T23:29:14.370Z,10.86
2023-05-13T23:31:41.273Z,10.84
2023-05-13T23:34:08.515Z,10.85
2023-05-13T23:36:35.452Z,10.99
2023-05-13T23:39:02.590Z,10.74
2023-05-13T23:41:29.349Z,10.79
2023-05-13T23:43:56.356Z,10.61
2023-05-13T23:46:23.459Z,10.38
2023-05-13T23:48:50.384Z,10.65
2023-05-13T23:51:17.073Z,10.42
2023-05-13T23:53:43.867Z,10.01
2023-05-13T23:56:10.868Z,10.10
2023-05-13T23:58:37.585Z,10.03
